Time;durP1;ratioP1;P1;durP2;ratioP2;P2;SDS_P1;SDS_P2;PMS_P1;PMS_P2;Temp;Humidity;BMP_temperature;BMP_pressure;BME280_temperature;BME280_humidity;BME280_pressure;Samples;Min_cycle;Max_cycle;Signal;HPM_P1;HPM_P2
2023/10/11 00:01:03;;;;;;;17.87;13.20;;;21.20;80.40;;;;;;10830554;33;20023;-74
2023/10/11 00:07:05;;;;;;;18.60;15.18;;;21.20;80.50;;;;;;10816513;33;20019;-75
2023/10/11 00:13:09;;;;;;;16.35;12.68;;;21.20;80.70;;;;;;10830202;33;20307;-75
2023/10/11 00:19:15;;;;;;;18.73;15.93;;;21.10;80.60;;;;;;10830591;33;20020;-73
2023/10/11 00:25:24;;;;;;;17.37;12.88;;;21.10;80.70;;;;;;10829239;33;20028;-73
2023/10/11 00:31:26;;;;;;;18.20;13.82;;;21.00;80.70;;;;;;10830203;33;20023;-73
2023/10/11 00:37:29;;;;;;;17.85;14.02;;;21.00;81.00;;;;;;10824926;33;20029;-73
2023/10/11 00:43:33;;;;;;;13.45;9.57;;;20.90;81.20;;;;;;10816180;33;20008;-73
2023/10/11 00:49:50;;;;;;;15.48;12.15;;;20.90;81.10;;;;;;10815543;33;20334;-73
2023/10/11 00:55:57;;;;;;;15.65;12.13;;;20.80;81.20;;;;;;10829650;33;20042;-73
2023/10/11 01:01:59;;;;;;;15.25;11.27;;;20.80;81.10;;;;;;10828161;33;20024;-73
2023/10/11 01:08:01;;;;;;;26.02;13.68;;;20.80;81.00;;;;;;10828542;33;20024;-73
2023/10/11 01:14:03;;;;;;;17.98;14.18;;;20.70;81.00;;;;;;10827849;33;20093;-73
2023/10/11 01:20:13;;;;;;;16.80;11.88;;;20.70;81.10;;;;;;10827650;33;20015;-73
2023/10/11 01:26:15;;;;;;;16.05;10.18;;;20.70;81.10;;;;;;10828032;33;20032;-73
2023/10/11 01:32:18;;;;;;;15.18;11.57;;;20.60;81.20;;;;;;10828532;33;20050;-73
2023/10/11 01:38:20;;;;;;;12.10;9.10;;;20.50;81.00;;;;;;10827755;33;20028;-73
2023/10/11 01:44:22;;;;;;;13.27;10.45;;;20.50;81.10;;;;;;10828131;33;20024;-73
2023/10/11 01:50:24;;;;;;;13.38;10.48;;;20.50;81.10;;;;;;10826673;33;20024;-73
2023/10/11 01:56:27;;;;;;;16.70;13.43;;;20.40;81.00;;;;;;10827813;33;20401;-73
2023/10/11 02:02:32;;;;;;;13.57;11.77;;;20.30;81.20;;;;;;10825927;32;20032;-73
2023/10/11 02:08:36;;;;;;;11.93;9.15;;;20.40;81.10;;;;;;10826223;33;20043;-73
2023/10/11 02:14:38;;;;;;;11.50;9.25;;;20.30;81.10;;;;;;10813536;33;20023;-73
2023/10/11 02:20:45;;;;;;;10.75;8.63;;;20.30;81.20;;;;;;10826471;33;20024;-73
2023/10/11 02:26:58;;;;;;;12.13;9.35;;;20.30;81.40;;;;;;10825627;33;20024;-73
2023/10/11 02:33:00;;;;;;;14.75;9.60;;;20.30;81.60;;;;;;10825599;33;20024;-75
2023/10/11 02:39:06;;;;;;;12.57;9.10;;;20.10;81.50;;;;;;10825473;33;20050;-73
2023/10/11 02:45:08;;;;;;;10.00;7.45;;;20.10;81.60;;;;;;10825858;33;20032;-73
2023/10/11 02:51:16;;;;;;;13.00;7.75;;;20.10;81.50;;;;;;10825170;33;20024;-73
2023/10/11 02:57:19;;;;;;;14.00;9.80;;;20.10;81.40;;;;;;10824904;33;20020;-74
2023/10/11 03:03:23;;;;;;;10.07;7.05;;;20.00;81.40;;;;;;10825990;33;20024;-75
2023/10/11 03:09:27;;;;;;;15.77;9.90;;;19.90;81.50;;;;;;10810381;33;20036;-74
2023/10/11 03:15:29;;;;;;;15.35;9.75;;;19.90;81.70;;;;;;10824566;33;20065;-74
2023/10/11 03:21:33;;;;;;;13.32;7.53;;;20.00;81.80;;;;;;10824292;33;20016;-74
2023/10/11 03:27:42;;;;;;;13.20;9.80;;;20.00;81.70;;;;;;10824690;33;20062;-75
2023/10/11 03:33:44;;;;;;;14.85;8.98;;;20.00;81.50;;;;;;10808757;32;20418;-76
2023/10/11 03:39:55;;;;;;;12.45;9.15;;;19.90;81.50;;;;;;10825172;33;20414;-74
2023/10/11 03:46:00;;;;;;;13.45;9.05;;;19.90;81.50;;;;;;10825016;33;20342;-76
2023/10/11 03:52:04;;;;;;;10.55;8.60;;;19.80;81.60;;;;;;10823527;33;20027;-73
2023/10/11 03:58:06;;;;;;;11.05;7.75;;;19.70;81.70;;;;;;10824595;33;20016;-73
2023/10/11 04:04:09;;;;;;;10.00;7.37;;;19.60;81.70;;;;;;10824431;33;20024;-75
2023/10/11 04:10:19;;;;;;;11.25;7.95;;;19.50;81.80;;;;;;10823220;33;20051;-73
2023/10/11 04:16:23;;;;;;;10.10;7.62;;;19.50;81.80;;;;;;10823108;33;20028;-76
2023/10/11 04:22:31;;;;;;;11.12;8.07;;;19.50;81.70;;;;;;10823494;32;20054;-73
2023/10/11 04:28:33;;;;;;;10.07;6.50;;;19.50;81.70;;;;;;10829004;33;20028;-73
2023/10/11 04:34:38;;;;;;;16.12;9.10;;;19.40;81.70;;;;;;10828955;33;20016;-73
2023/10/11 04:40:52;;;;;;;11.23;8.15;;;19.50;81.70;;;;;;10829379;33;20020;-73
2023/10/11 04:46:57;;;;;;;10.68;6.32;;;19.50;81.60;;;;;;10829116;33;20399;-73
2023/10/11 04:53:06;;;;;;;11.75;9.27;;;19.50;81.50;;;;;;10828372;33;20050;-73
2023/10/11 04:59:16;;;;;;;10.30;6.78;;;19.40;81.60;;;;;;10829488;33;20024;-74
2023/10/11 05:05:21;;;;;;;10.85;7.20;;;19.30;81.70;;;;;;10829239;33;20028;-73
2023/10/11 05:11:35;;;;;;;9.35;6.60;;;19.30;81.80;;;;;;10829181;33;20020;-73
2023/10/11 05:17:41;;;;;;;8.50;5.12;;;19.30;81.70;;;;;;10827863;33;20024;-74
2023/10/11 05:24:04;;;;;;;14.38;7.47;;;19.30;81.70;;;;;;10815137;32;20075;-76
2023/10/11 05:30:13;;;;;;;8.05;6.53;;;19.30;82.00;;;;;;10813951;33;20044;-73
2023/10/11 05:36:36;;;;;;;13.68;6.68;;;19.30;81.90;;;;;;10826403;32;20016;-73
2023/10/11 05:55:20;;;;;;;8.70;6.18;;;19.00;82.10;;;;;;10827246;33;20429;-73
2023/10/11 06:01:23;;;;;;;10.73;6.65;;;19.10;82.10;;;;;;10827231;33;20334;-75
2023/10/11 06:07:32;;;;;;;8.50;5.32;;;19.10;82.10;;;;;;10826286;33;20024;-75
2023/10/11 06:13:36;;;;;;;8.05;5.22;;;19.00;82.20;;;;;;10826355;33;20043;-75
2023/10/11 06:19:43;;;;;;;10.75;6.55;;;19.10;82.10;;;;;;10812920;33;20046;-75
2023/10/11 06:25:51;;;;;;;6.35;5.15;;;19.20;82.00;;;;;;10826462;33;20058;-75
2023/10/11 06:31:54;;;;;;;8.45;5.45;;;19.30;82.00;;;;;;10826424;33;20434;-75
2023/10/11 06:37:56;;;;;;;8.93;5.55;;;19.30;82.00;;;;;;10826339;33;20394;-75
2023/10/11 06:44:00;;;;;;;5.03;3.78;;;19.30;82.00;;;;;;10813941;32;20420;-75
2023/10/11 06:50:12;;;;;;;11.98;5.18;;;19.30;82.00;;;;;;10905699;27;20035;-74
2023/10/11 06:56:16;;;;;;;9.63;6.45;;;19.30;81.90;;;;;;10980743;32;20344;-74
2023/10/11 07:02:31;;;;;;;10.73;6.22;;;19.40;82.00;;;;;;10953443;32;20082;-74
2023/10/11 07:08:35;;;;;;;7.80;5.32;;;19.50;81.90;;;;;;10979674;32;20022;-74
2023/10/11 07:14:41;;;;;;;7.95;5.62;;;19.60;81.70;;;;;;10980125;32;20060;-74
2023/10/11 07:21:19;;;;;;;10.65;6.80;;;19.70;81.60;;;;;;10980139;32;20010;-74
2023/10/11 07:27:13;;;;;;;13.55;5.97;;;19.70;81.30;;;;;;10963519;32;20408;-74
2023/10/11 07:33:16;;;;;;;12.02;6.60;;;19.80;81.10;;;;;;10979096;32;20018;-74
2023/10/11 07:39:25;;;;;;;15.13;6.93;;;19.90;80.80;;;;;;10978878;32;20015;-74
2023/10/11 07:45:28;;;;;;;12.60;7.05;;;20.00;80.70;;;;;;10965332;32;20042;-74
2023/10/11 07:51:40;;;;;;;15.80;7.40;;;20.00;80.50;;;;;;10864087;32;20020;-74
2023/10/11 07:57:46;;;;;;;10.02;4.53;;;20.20;80.40;;;;;;10827455;32;20047;-74
2023/10/11 08:03:48;;;;;;;10.68;6.65;;;20.30;80.20;;;;;;10830596;33;20333;-74
2023/10/11 08:09:55;;;;;;;13.55;7.03;;;20.40;80.00;;;;;;10829651;33;20342;-74
2023/10/11 08:15:58;;;;;;;15.07;8.13;;;20.50;79.90;;;;;;10829518;33;20020;-74
2023/10/11 08:22:09;;;;;;;14.70;7.05;;;20.60;79.60;;;;;;10829287;33;20016;-74
2023/10/11 08:28:19;;;;;;;14.68;7.53;;;20.70;79.40;;;;;;10829059;33;20390;-74
2023/10/11 08:34:21;;;;;;;10.68;6.68;;;20.80;79.20;;;;;;10815525;33;20027;-74
2023/10/11 08:40:29;;;;;;;14.77;6.15;;;20.90;78.90;;;;;;10828722;33;20051;-74
2023/10/11 08:46:32;;;;;;;6.75;4.55;;;21.00;78.70;;;;;;10829357;33;20436;-75
2023/10/11 08:52:38;;;;;;;13.65;6.10;;;21.20;78.60;;;;;;10815472;33;20052;-74
2023/10/11 08:58:41;;;;;;;12.20;5.93;;;21.30;78.30;;;;;;10829473;33;20386;-75
2023/10/11 09:05:28;;;;;;;12.52;6.65;;;21.30;77.90;;;;;;10827971;33;20038;-74
2023/10/11 09:11:33;;;;;;;10.23;5.97;;;21.50;77.70;;;;;;10828044;32;20035;-74
2023/10/11 09:17:39;;;;;;;13.52;8.80;;;21.60;77.30;;;;;;10827650;33;20020;-76
2023/10/11 09:23:49;;;;;;;17.77;9.30;;;21.60;77.10;;;;;;10827453;33;20039;-74
2023/10/11 09:29:52;;;;;;;11.12;8.13;;;21.70;77.10;;;;;;10827245;33;20042;-74
2023/10/11 09:36:06;;;;;;;18.98;11.40;;;21.80;76.90;;;;;;10794390;32;20099;-75
2023/10/11 09:42:16;;;;;;;13.65;7.20;;;21.90;76.70;;;;;;10775171;33;20032;-74
2023/10/11 09:48:19;;;;;;;15.57;7.45;;;22.10;76.50;;;;;;10815717;33;20042;-75
2023/10/11 09:54:22;;;;;;;15.93;10.63;;;22.20;76.30;;;;;;10826632;33;20390;-74
2023/10/11 10:00:34;;;;;;;14.40;10.32;;;22.30;76.10;;;;;;10826607;33;20074;-74
2023/10/11 10:06:37;;;;;;;14.65;9.25;;;22.40;75.80;;;;;;10813512;33;20012;-74
2023/10/11 10:12:54;;;;;;;16.77;11.32;;;22.50;75.70;;;;;;10826182;33;20047;-75
2023/10/11 10:19:22;;;;;;;14.87;9.38;;;22.70;75.50;;;;;;10825637;32;20154;-74
2023/10/11 10:25:28;;;;;;;15.43;10.07;;;22.80;75.10;;;;;;10826450;33;20366;-74
2023/10/11 10:31:33;;;;;;;26.40;13.18;;;23.00;74.70;;;;;;10825671;33;20367;-76
2023/10/11 10:37:50;;;;;;;17.27;10.55;;;23.20;74.40;;;;;;10825546;33;20046;-75
2023/10/11 10:44:09;;;;;;;17.37;9.10;;;23.30;74.10;;;;;;10825275;33;20042;-74
2023/10/11 10:50:21;;;;;;;16.92;10.82;;;23.60;73.70;;;;;;10824845;33;20027;-74
2023/10/11 10:56:24;;;;;;;16.67;9.98;;;23.80;73.30;;;;;;10811376;33;20040;-74
2023/10/11 11:02:26;;;;;;;16.25;10.25;;;24.10;72.80;;;;;;10824140;33;20028;-74
2023/10/11 11:08:32;;;;;;;16.80;10.25;;;24.30;72.60;;;;;;10823940;33;20032;-75
2023/10/11 11:15:00;;;;;;;17.85;13.40;;;24.60;71.80;;;;;;10823448;33;20082;-75
2023/10/11 11:21:44;;;;;;;16.20;10.30;;;24.80;71.30;;;;;;10824061;33;20046;-74
2023/10/11 11:27:47;;;;;;;19.10;12.60;;;24.90;70.90;;;;;;10826145;32;20031;-75
2023/10/11 11:34:05;;;;;;;17.77;13.23;;;25.00;70.40;;;;;;10813082;33;20028;-75
2023/10/11 11:40:24;;;;;;;14.45;9.98;;;25.00;70.20;;;;;;10825386;33;20438;-74
2023/10/11 11:46:51;;;;;;;13.90;9.73;;;25.00;70.20;;;;;;10822236;33;20032;-73
2023/10/11 11:52:57;;;;;;;20.98;11.10;;;25.10;69.90;;;;;;10824445;33;20044;-74
2023/10/11 11:59:02;;;;;;;13.52;9.95;;;25.10;69.80;;;;;;10825691;33;20032;-74
2023/10/11 12:05:10;;;;;;;14.57;11.20;;;25.20;69.50;;;;;;10791506;33;20060;-74
2023/10/11 12:11:15;;;;;;;12.93;9.33;;;25.10;69.20;;;;;;10786388;33;20025;-75
2023/10/11 12:17:17;;;;;;;21.45;13.88;;;25.00;69.50;;;;;;10786190;33;20004;-74
2023/10/11 12:23:20;;;;;;;18.37;11.73;;;25.10;69.40;;;;;;10786468;33;20021;-74
2023/10/11 12:29:22;;;;;;;19.20;9.45;;;25.10;69.30;;;;;;10785986;33;20433;-75
2023/10/11 12:35:24;;;;;;;17.10;10.50;;;25.20;69.10;;;;;;10786035;33;20454;-74
2023/10/11 12:41:48;;;;;;;13.18;9.50;;;25.10;68.90;;;;;;10785991;33;20012;-73
2023/10/11 12:47:50;;;;;;;16.20;9.57;;;25.00;68.90;;;;;;10811777;32;20054;-75
2023/10/11 12:53:57;;;;;;;11.23;7.07;;;25.10;68.70;;;;;;10946599;32;20077;-74
2023/10/11 13:00:31;;;;;;;21.62;9.27;;;25.10;68.60;;;;;;10945367;32;20061;-74
2023/10/11 13:06:36;;;;;;;20.62;10.23;;;25.20;68.60;;;;;;10946055;32;20041;-75
2023/10/11 13:12:38;;;;;;;28.75;12.40;;;25.10;69.70;;;;;;10945721;32;20042;-75
2023/10/11 13:18:41;;;;;;;17.23;9.80;;;25.00;69.30;;;;;;10945928;32;20030;-74
2023/10/11 13:24:43;;;;;;;18.85;10.57;;;25.00;69.10;;;;;;10945710;32;20022;-73
2023/10/11 13:30:47;;;;;;;21.10;11.32;;;25.10;68.50;;;;;;10944674;32;20058;-75
2023/10/11 13:36:49;;;;;;;13.25;8.73;;;25.20;68.60;;;;;;10975225;32;20400;-74
2023/10/11 13:42:51;;;;;;;15.48;7.22;;;25.30;68.40;;;;;;10982953;32;20015;-74
2023/10/11 13:49:00;;;;;;;11.63;6.97;;;25.30;68.00;;;;;;10935591;32;20401;-74
2023/10/11 13:55:11;;;;;;;15.20;9.02;;;25.30;68.00;;;;;;10825393;32;20016;-74
2023/10/11 14:07:37;;;;;;;13.10;7.87;;;25.40;67.70;;;;;;10823709;33;20043;-74
2023/10/11 14:13:44;;;;;;;11.88;6.35;;;25.60;67.60;;;;;;10826264;33;20019;-73
2023/10/11 14:19:46;;;;;;;12.48;8.32;;;25.60;67.40;;;;;;10827748;33;20034;-74
2023/10/11 14:25:56;;;;;;;19.23;8.90;;;25.70;67.20;;;;;;10825794;33;20050;-74
2023/10/11 14:31:58;;;;;;;11.65;6.97;;;25.80;67.00;;;;;;10827335;33;20047;-73
2023/10/11 14:38:01;;;;;;;14.60;7.43;;;25.80;67.10;;;;;;10812366;33;20039;-74
2023/10/11 14:44:04;;;;;;;12.43;6.97;;;25.80;66.90;;;;;;10826602;33;20016;-74
2023/10/11 14:50:11;;;;;;;10.98;7.18;;;25.90;66.80;;;;;;10381742;32;17095449;-74
2023/10/11 14:56:14;;;;;;;12.83;9.73;;;25.90;66.70;;;;;;10979947;32;20041;-74
2023/10/11 15:02:16;;;;;;;22.02;8.90;;;25.90;66.50;;;;;;10967600;32;20047;-74
2023/10/11 15:08:18;;;;;;;12.70;7.35;;;25.90;66.40;;;;;;10980509;32;20044;-73
2023/10/11 15:14:20;;;;;;;12.40;6.32;;;25.80;66.40;;;;;;10979996;32;20309;-73
2023/10/11 15:20:22;;;;;;;15.23;7.75;;;25.80;66.40;;;;;;10979081;32;20011;-73
2023/10/11 15:26:26;;;;;;;9.82;6.30;;;25.90;66.30;;;;;;10979670;32;20057;-74
2023/10/11 15:32:28;;;;;;;9.32;6.30;;;26.20;65.60;;;;;;10979082;32;20435;-73
2023/10/11 15:38:32;;;;;;;16.45;6.22;;;26.70;64.70;;;;;;10964775;32;20030;-73
2023/10/11 15:44:35;;;;;;;8.88;5.82;;;27.30;64.00;;;;;;10980037;32;20019;-73
2023/10/11 15:50:37;;;;;;;10.65;5.50;;;27.20;64.00;;;;;;10978778;32;20019;-73
2023/10/11 15:56:43;;;;;;;13.88;6.60;;;26.50;65.30;;;;;;10979261;32;20020;-73
2023/10/11 16:02:45;;;;;;;10.55;5.65;;;25.90;66.00;;;;;;10978602;32;20050;-73
2023/10/11 16:08:48;;;;;;;9.00;4.93;;;25.70;66.20;;;;;;10964244;32;20068;-74
2023/10/11 16:14:51;;;;;;;8.57;4.60;;;25.40;66.50;;;;;;10978930;32;20282;-74
2023/10/11 16:20:54;;;;;;;8.73;4.78;;;25.10;67.10;;;;;;10984272;32;20286;-73
2023/10/11 16:26:57;;;;;;;9.10;4.62;;;24.80;67.60;;;;;;10985277;32;20038;-73
2023/10/11 16:33:00;;;;;;;8.55;4.32;;;24.70;67.90;;;;;;10985143;32;20014;-73
2023/10/11 16:39:03;;;;;;;20.92;4.97;;;24.50;68.20;;;;;;10986189;32;20384;-73
2023/10/11 16:45:11;;;;;;;8.90;3.30;;;24.30;68.50;;;;;;10984628;32;20046;-73
2023/10/11 16:51:17;;;;;;;9.98;5.03;;;24.20;68.80;;;;;;10984489;32;20018;-73
2023/10/11 16:57:19;;;;;;;7.65;4.65;;;23.90;69.10;;;;;;10984769;32;20023;-73
2023/10/11 17:03:21;;;;;;;9.95;4.47;;;23.80;69.30;;;;;;10971312;32;20037;-73
2023/10/11 17:09:24;;;;;;;7.37;3.37;;;23.70;69.60;;;;;;10983713;32;20026;-73
2023/10/11 17:15:26;;;;;;;6.78;4.47;;;23.60;69.80;;;;;;10983775;32;20077;-73
2023/10/11 17:21:28;;;;;;;6.90;4.25;;;23.50;69.90;;;;;;10969803;32;20030;-73
2023/10/11 17:27:32;;;;;;;9.70;4.45;;;23.40;70.00;;;;;;10969331;32;20357;-73
2023/10/11 17:33:35;;;;;;;9.40;4.28;;;23.30;70.10;;;;;;10982858;32;20022;-73
2023/10/11 17:39:37;;;;;;;11.68;5.05;;;23.30;70.20;;;;;;10983338;32;20336;-73
2023/10/11 17:45:40;;;;;;;15.77;4.57;;;23.30;70.30;;;;;;10982451;32;20033;-73
2023/10/11 17:51:42;;;;;;;8.55;4.65;;;23.20;70.50;;;;;;10982196;32;20019;-73
2023/10/11 17:57:46;;;;;;;15.57;4.30;;;23.10;70.60;;;;;;10982665;32;20019;-73
2023/10/11 18:03:48;;;;;;;9.07;4.18;;;23.00;70.80;;;;;;10982355;32;20007;-73
2023/10/11 18:09:50;;;;;;;6.25;3.42;;;22.90;71.00;;;;;;10981367;32;20423;-73
2023/10/11 18:15:52;;;;;;;7.65;4.43;;;22.90;71.20;;;;;;10980693;32;20389;-73
2023/10/11 18:21:56;;;;;;;7.45;4.28;;;22.80;71.60;;;;;;10941817;32;20035;-73
2023/10/11 18:28:03;;;;;;;8.48;5.20;;;22.70;72.00;;;;;;10940980;32;20027;-70
2023/10/11 18:34:06;;;;;;;9.35;4.37;;;22.60;72.30;;;;;;10944272;32;20072;-70
2023/10/11 18:40:16;;;;;;;7.37;4.65;;;22.60;72.60;;;;;;10955683;32;20038;-70
2023/10/11 18:46:18;;;;;;;9.50;4.85;;;22.50;72.70;;;;;;10976577;32;20031;-70
2023/10/11 18:52:22;;;;;;;8.25;4.45;;;22.40;72.90;;;;;;10979106;32;20014;-70
2023/10/11 18:58:24;;;;;;;10.70;6.50;;;22.40;73.40;;;;;;10981257;32;20023;-70
2023/10/11 19:04:26;;;;;;;12.50;4.95;;;22.30;73.80;;;;;;10979854;32;20468;-70
2023/10/11 19:10:32;;;;;;;14.48;5.37;;;22.20;73.80;;;;;;10980782;32;20046;-70
2023/10/11 19:16:34;;;;;;;11.98;5.10;;;22.20;74.20;;;;;;10966637;32;20061;-70
2023/10/11 19:22:36;;;;;;;9.40;6.10;;;22.10;74.30;;;;;;10979623;32;20050;-70
2023/10/11 19:28:39;;;;;;;10.77;6.82;;;22.10;74.50;;;;;;10979079;32;20045;-70
2023/10/11 19:34:43;;;;;;;9.75;6.35;;;22.00;74.60;;;;;;10979675;32;20336;-70
2023/10/11 19:40:46;;;;;;;8.98;6.53;;;22.00;74.80;;;;;;10979346;32;20381;-70
2023/10/11 19:46:48;;;;;;;7.12;4.50;;;21.90;75.30;;;;;;10978768;32;20014;-70
2023/10/11 19:52:50;;;;;;;7.75;5.43;;;21.80;75.80;;;;;;10980744;32;20037;-70
2023/10/11 19:58:53;;;;;;;7.12;5.32;;;21.80;76.10;;;;;;10972650;32;20027;-70
2023/10/11 20:04:55;;;;;;;12.75;7.85;;;21.80;76.70;;;;;;10985249;32;20007;-70
2023/10/11 20:11:01;;;;;;;8.55;6.82;;;21.60;77.30;;;;;;10971966;32;20330;-70
2023/10/11 20:17:06;;;;;;;11.10;8.13;;;21.60;77.40;;;;;;10986417;32;20023;-70
2023/10/11 20:23:08;;;;;;;11.52;7.68;;;21.60;77.40;;;;;;10957387;32;20124;-69
2023/10/11 20:29:14;;;;;;;13.10;9.20;;;21.50;77.20;;;;;;10945696;32;20019;-70
2023/10/11 20:35:23;;;;;;;11.18;8.90;;;21.50;77.20;;;;;;10947350;32;20054;-69
2023/10/11 20:41:25;;;;;;;13.77;8.27;;;21.40;77.30;;;;;;10947076;32;20368;-69
2023/10/11 20:47:30;;;;;;;16.08;9.73;;;21.40;77.30;;;;;;10932444;32;20026;-69
2023/10/11 20:53:35;;;;;;;12.55;8.15;;;21.30;77.20;;;;;;10946346;32;20480;-70
2023/10/11 20:59:38;;;;;;;16.02;9.00;;;21.30;77.40;;;;;;10947291;32;20089;-70
2023/10/11 21:05:46;;;;;;;10.75;6.93;;;21.30;77.50;;;;;;10950618;32;20409;-70
2023/10/11 21:11:49;;;;;;;9.80;8.23;;;21.30;77.90;;;;;;10945942;32;20007;-71
2023/10/11 21:17:51;;;;;;;17.48;9.60;;;21.30;78.10;;;;;;10944390;32;20038;-70
2023/10/11 21:23:57;;;;;;;16.55;11.40;;;21.30;78.20;;;;;;10943997;32;20380;-70
2023/10/11 21:30:00;;;;;;;13.65;9.88;;;21.20;78.10;;;;;;10944500;32;20015;-71
2023/10/11 21:36:03;;;;;;;13.75;9.18;;;21.20;78.10;;;;;;10940939;32;20019;-71
2023/10/11 21:42:05;;;;;;;14.70;10.13;;;21.20;78.50;;;;;;10944681;32;20023;-70
2023/10/11 21:48:13;;;;;;;16.33;10.07;;;21.10;78.70;;;;;;10943302;32;20031;-70
2023/10/11 21:54:16;;;;;;;12.73;10.90;;;21.00;78.40;;;;;;10944078;32;20022;-70
2023/10/11 22:06:50;;;;;;;14.73;10.38;;;20.90;78.60;;;;;;10981950;32;20026;-70
2023/10/11 22:12:54;;;;;;;15.43;11.45;;;20.90;78.70;;;;;;10982397;32;20015;-70
2023/10/11 22:18:58;;;;;;;17.10;10.82;;;20.90;78.70;;;;;;10982215;32;20516;-70
2023/10/11 22:25:04;;;;;;;17.45;12.68;;;20.90;78.60;;;;;;10982580;32;20377;-70
2023/10/11 22:31:11;;;;;;;19.35;13.57;;;20.80;78.70;;;;;;10981026;32;20057;-70
2023/10/11 22:37:13;;;;;;;16.20;12.27;;;20.80;78.80;;;;;;10977125;32;20050;-70
2023/10/11 22:43:15;;;;;;;14.18;10.88;;;20.80;78.90;;;;;;10980887;32;20018;-71
2023/10/11 22:49:19;;;;;;;16.23;12.82;;;20.80;79.00;;;;;;10928422;27;20353;-70
2023/10/11 22:55:24;;;;;;;12.57;8.65;;;20.80;79.30;;;;;;10825764;33;20345;-70
2023/10/11 23:01:26;;;;;;;13.65;10.15;;;20.80;79.30;;;;;;10825813;33;20017;-70
2023/10/11 23:07:28;;;;;;;15.32;8.75;;;20.70;79.30;;;;;;10823998;33;20051;-70
2023/10/11 23:13:30;;;;;;;15.32;9.65;;;20.70;79.40;;;;;;10826058;33;20023;-70
2023/10/11 23:19:32;;;;;;;17.87;14.25;;;20.60;79.90;;;;;;10824703;33;20016;-70
2023/10/11 23:25:49;;;;;;;12.27;9.60;;;20.60;79.80;;;;;;10824578;32;20042;-70
2023/10/11 23:31:51;;;;;;;15.10;10.50;;;20.60;79.70;;;;;;10824466;33;20051;-70
2023/10/11 23:37:53;;;;;;;17.42;13.05;;;20.50;79.80;;;;;;10825524;33;20047;-70
2023/10/11 23:44:00;;;;;;;15.05;10.60;;;20.50;79.90;;;;;;10822622;33;20048;-71
2023/10/11 23:50:08;;;;;;;13.80;9.43;;;20.50;79.80;;;;;;10823780;33;20337;-70
2023/10/11 23:56:17;;;;;;;16.83;12.68;;;20.40;79.80;;;;;;10824381;33;20067;-71
